createdAt,value
2023-05-09T00:00:19.880Z,18.86
2023-05-09T00:01:19.944Z,18.84
2023-05-09T00:02:19.983Z,18.82
2023-05-09T00:03:20.053Z,18.84
2023-05-09T00:04:20.051Z,18.84
2023-05-09T00:05:20.042Z,18.87
2023-05-09T00:06:20.034Z,18.90
2023-05-09T00:07:20.097Z,18.93
2023-05-09T00:08:20.115Z,18.97
2023-05-09T00:09:20.119Z,18.94
2023-05-09T00:10:20.165Z,18.96
2023-05-09T00:11:20.134Z,18.99
2023-05-09T00:12:20.188Z,19.01
2023-05-09T00:13:20.366Z,19.06
2023-05-09T00:14:20.200Z,19.06
2023-05-09T00:15:20.260Z,19.04
2023-05-09T00:16:20.267Z,18.97
2023-05-09T00:17:20.313Z,18.90
2023-05-09T00:18:20.314Z,18.86
2023-05-09T00:19:20.284Z,18.73
2023-05-09T00:20:20.405Z,18.55
2023-05-09T00:21:20.336Z,18.58
2023-05-09T00:22:20.411Z,18.56
2023-05-09T00:23:20.399Z,18.62
2023-05-09T00:24:20.417Z,18.59
2023-05-09T00:25:20.434Z,18.63
2023-05-09T00:26:20.416Z,18.60
2023-05-09T00:27:20.398Z,18.64
2023-05-09T00:28:20.457Z,18.74
2023-05-09T00:29:20.494Z,18.74
2023-05-09T00:30:20.480Z,18.79
2023-05-09T00:31:20.528Z,18.86
2023-05-09T00:32:20.507Z,18.90
2023-05-09T00:33:20.529Z,18.74
2023-05-09T00:34:20.530Z,18.90
2023-05-09T00:35:20.542Z,18.90
2023-05-09T00:36:20.619Z,18.93
2023-05-09T00:37:20.538Z,18.90
2023-05-09T00:38:20.523Z,18.89
2023-05-09T00:39:20.616Z,18.93
2023-05-09T00:40:20.625Z,18.94
2023-05-09T00:41:20.631Z,18.96
2023-05-09T00:42:20.660Z,18.99
2023-05-09T00:43:20.682Z,18.99
2023-05-09T00:44:20.749Z,19.03
2023-05-09T00:45:20.772Z,19.06
2023-05-09T00:46:20.741Z,19.04
2023-05-09T00:47:20.766Z,19.07
2023-05-09T00:48:20.876Z,19.09
2023-05-09T00:49:20.884Z,19.09
2023-05-09T00:50:20.972Z,19.09
2023-05-09T00:51:21.006Z,19.13
2023-05-09T00:52:21.057Z,19.07
2023-05-09T00:53:21.069Z,19.10
2023-05-09T00:54:21.108Z,19.07
2023-05-09T00:55:21.113Z,19.09
2023-05-09T00:56:21.179Z,19.07
2023-05-09T00:57:21.143Z,19.10
2023-05-09T00:58:21.168Z,19.11
2023-05-09T00:59:21.142Z,19.11
2023-05-09T01:00:21.153Z,19.11
2023-05-09T01:01:21.227Z,19.10
2023-05-09T01:02:21.266Z,19.09
2023-05-09T01:03:21.246Z,19.10
2023-05-09T01:04:21.193Z,19.11
2023-05-09T01:05:21.197Z,19.11
2023-05-09T01:06:21.233Z,19.11
2023-05-09T01:07:21.238Z,19.14
2023-05-09T01:08:21.697Z,19.14
2023-05-09T01:09:21.273Z,19.07
2023-05-09T01:10:21.298Z,19.04
2023-05-09T01:11:22.150Z,19.06
2023-05-09T01:12:21.349Z,19.04
2023-05-09T01:13:21.423Z,19.07
2023-05-09T01:14:21.409Z,19.03
2023-05-09T01:15:21.454Z,19.03
2023-05-09T01:16:21.601Z,18.99
2023-05-09T01:17:21.543Z,18.94
2023-05-09T01:18:21.683Z,18.93
2023-05-09T01:19:21.662Z,18.79
2023-05-09T01:20:21.696Z,18.56
2023-05-09T01:21:21.760Z,18.64
2023-05-09T01:22:21.730Z,18.67
2023-05-09T01:23:21.748Z,18.69
2023-05-09T01:24:21.785Z,18.67
2023-05-09T01:25:22.618Z,18.74
2023-05-09T01:26:21.745Z,18.77
2023-05-09T01:27:21.770Z,18.77
2023-05-09T01:28:21.794Z,18.80
2023-05-09T01:29:21.795Z,18.82
2023-05-09T01:30:21.893Z,18.84
2023-05-09T01:31:21.977Z,18.79
2023-05-09T01:32:22.007Z,18.86
2023-05-09T01:33:22.043Z,18.90
2023-05-09T01:34:22.100Z,18.89
2023-05-09T01:35:22.127Z,18.89
2023-05-09T01:36:22.106Z,18.90
2023-05-09T01:37:22.170Z,18.87
2023-05-09T01:38:22.175Z,18.69
2023-05-09T01:39:22.181Z,18.79
2023-05-09T01:40:22.272Z,18.83
2023-05-09T01:41:22.284Z,18.80
2023-05-09T01:42:22.344Z,18.67
2023-05-09T01:43:22.322Z,18.76
2023-05-09T01:44:22.285Z,18.80
2023-05-09T01:45:22.337Z,18.82
2023-05-09T01:46:22.448Z,18.82
2023-05-09T01:47:22.404Z,18.91
2023-05-09T01:48:22.488Z,18.94
2023-05-09T01:49:22.536Z,18.94
2023-05-09T01:50:22.482Z,18.97
2023-05-09T01:51:22.505Z,18.96
2023-05-09T01:52:22.516Z,19.00
2023-05-09T01:53:22.569Z,19.01
2023-05-09T01:54:22.592Z,19.03
2023-05-09T01:55:22.605Z,19.07
2023-05-09T01:56:22.679Z,19.07
2023-05-09T01:57:22.666Z,19.11
2023-05-09T01:58:22.688Z,19.13
2023-05-09T01:59:22.679Z,19.04
2023-05-09T02:00:22.677Z,19.07
2023-05-09T02:01:22.727Z,19.09
2023-05-09T02:02:22.850Z,19.09
2023-05-09T02:03:22.782Z,19.10
2023-05-09T02:04:22.721Z,19.07
2023-05-09T02:05:22.758Z,19.10
2023-05-09T02:06:22.834Z,19.11
2023-05-09T02:07:22.831Z,19.13
2023-05-09T02:08:22.818Z,19.11
2023-05-09T02:09:22.876Z,19.11
2023-05-09T02:10:22.906Z,19.18
2023-05-09T02:11:22.931Z,19.23
2023-05-09T02:12:23.059Z,19.21
2023-05-09T02:13:23.171Z,19.25
2023-05-09T02:14:23.033Z,19.21
2023-05-09T02:15:23.094Z,19.24
2023-05-09T02:16:23.144Z,19.21
2023-05-09T02:17:23.233Z,19.18
2023-05-09T02:18:23.204Z,19.23
2023-05-09T02:19:23.186Z,19.23
2023-05-09T02:20:23.226Z,19.20
2023-05-09T02:21:23.240Z,19.23
2023-05-09T02:22:23.263Z,19.23
2023-05-09T02:23:23.308Z,19.17
2023-05-09T02:24:23.284Z,19.14
2023-05-09T02:25:23.305Z,19.13
2023-05-09T02:26:23.298Z,19.11
2023-05-09T02:27:23.306Z,19.07
2023-05-09T02:28:23.379Z,19.07
2023-05-09T02:29:23.309Z,19.06
2023-05-09T02:30:23.377Z,19.04
2023-05-09T02:31:23.376Z,19.01
2023-05-09T02:32:23.395Z,18.99
2023-05-09T02:33:23.391Z,19.00
2023-05-09T02:34:23.398Z,19.04
2023-05-09T02:35:23.412Z,19.04
2023-05-09T02:36:23.463Z,19.09
2023-05-09T02:37:23.472Z,19.14
2023-05-09T02:38:23.623Z,19.17
2023-05-09T02:39:23.530Z,19.17
2023-05-09T02:40:23.544Z,19.21
2023-05-09T02:41:23.571Z,19.21
2023-05-09T02:42:23.595Z,19.18
2023-05-09T02:43:23.638Z,19.17
2023-05-09T02:44:23.693Z,19.15
2023-05-09T02:45:23.675Z,19.17
2023-05-09T02:46:23.711Z,19.15
2023-05-09T02:47:23.758Z,19.15
2023-05-09T02:48:23.707Z,19.10
2023-05-09T02:49:32.060Z,19.13
2023-05-09T02:50:24.727Z,19.11
2023-05-09T02:51:23.707Z,19.11
2023-05-09T02:52:23.688Z,19.11
2023-05-09T02:53:23.693Z,19.13
2023-05-09T02:54:23.674Z,19.11
2023-05-09T02:55:23.697Z,19.14
2023-05-09T02:56:23.648Z,19.13
2023-05-09T02:57:23.660Z,19.11
2023-05-09T02:58:23.646Z,19.04
2023-05-09T02:59:23.636Z,19.07
2023-05-09T03:00:23.692Z,19.06
2023-05-09T03:01:23.685Z,19.07
2023-05-09T03:02:23.751Z,19.11
2023-05-09T03:03:23.714Z,19.01
2023-05-09T03:04:23.653Z,19.09
2023-05-09T03:05:23.613Z,19.03
2023-05-09T03:06:23.624Z,19.07
2023-05-09T03:07:23.606Z,19.01
2023-05-09T03:08:23.574Z,19.06
2023-05-09T03:09:23.596Z,19.04
2023-05-09T03:10:23.604Z,19.01
2023-05-09T03:11:23.579Z,19.04
2023-05-09T03:12:23.623Z,19.00
2023-05-09T03:13:23.766Z,18.97
2023-05-09T03:14:23.629Z,18.99
2023-05-09T03:15:23.664Z,19.03
2023-05-09T03:16:24.063Z,19.06
2023-05-09T03:17:23.786Z,19.07
2023-05-09T03:18:23.856Z,18.96
2023-05-09T03:19:23.847Z,19.01
2023-05-09T03:20:23.901Z,19.03
2023-05-09T03:21:23.921Z,19.04
2023-05-09T03:22:23.951Z,19.03
2023-05-09T03:23:23.999Z,19.06
2023-05-09T03:24:23.960Z,19.09
2023-05-09T03:25:24.033Z,19.10
2023-05-09T03:26:24.044Z,19.10
2023-05-09T03:27:24.068Z,19.13
2023-05-09T03:28:24.170Z,19.14
2023-05-09T03:29:24.199Z,19.14
2023-05-09T03:30:24.178Z,19.13
2023-05-09T03:31:24.213Z,19.09
2023-05-09T03:32:24.335Z,19.04
2023-05-09T03:33:24.247Z,19.04
2023-05-09T03:34:24.255Z,18.97
2023-05-09T03:35:24.295Z,19.01
2023-05-09T03:36:24.338Z,19.00
2023-05-09T03:37:26.191Z,19.01
2023-05-09T03:38:24.547Z,19.04
2023-05-09T03:39:24.517Z,19.04
2023-05-09T03:40:24.522Z,19.06
2023-05-09T03:41:24.562Z,19.09
2023-05-09T03:42:24.617Z,19.10
2023-05-09T03:43:24.689Z,19.10
2023-05-09T03:44:24.760Z,19.04
2023-05-09T03:45:24.734Z,19.07
2023-05-09T03:46:24.829Z,19.04
2023-05-09T03:47:24.812Z,19.03
2023-05-09T03:48:24.904Z,19.06
2023-05-09T03:49:24.854Z,19.06
2023-05-09T03:50:24.855Z,19.07
2023-05-09T03:51:24.887Z,18.86
2023-05-09T03:52:25.015Z,18.83
2023-05-09T03:53:24.978Z,18.80
2023-05-09T03:54:25.127Z,18.84
2023-05-09T03:55:25.020Z,18.82
2023-05-09T03:56:25.030Z,18.64
2023-05-09T03:57:25.110Z,18.67
2023-05-09T03:58:25.084Z,18.38
2023-05-09T03:59:25.090Z,18.18
2023-05-09T04:00:25.105Z,18.41
2023-05-09T04:01:25.174Z,18.45
2023-05-09T04:02:25.235Z,18.42
2023-05-09T04:03:25.327Z,18.50
2023-05-09T04:04:25.359Z,18.56
2023-05-09T04:05:25.316Z,18.62
2023-05-09T04:06:25.381Z,18.67
2023-05-09T04:07:25.379Z,18.43
2023-05-09T04:08:25.409Z,18.55
2023-05-09T04:09:25.427Z,18.53
2023-05-09T04:10:25.449Z,18.62
2023-05-09T04:11:25.416Z,18.63
2023-05-09T04:12:25.475Z,18.63
2023-05-09T04:13:25.571Z,18.56
2023-05-09T04:14:25.534Z,18.55
2023-05-09T04:15:25.562Z,18.62
2023-05-09T04:16:25.613Z,18.62
2023-05-09T04:17:25.635Z,18.59
2023-05-09T04:18:25.664Z,18.62
2023-05-09T04:19:25.626Z,18.64
2023-05-09T04:20:25.718Z,18.73
2023-05-09T04:21:25.646Z,18.74
2023-05-09T04:22:25.715Z,18.79
2023-05-09T04:23:25.764Z,18.80
2023-05-09T04:24:25.783Z,18.70
2023-05-09T04:25:25.781Z,18.69
2023-05-09T04:26:25.793Z,18.73
2023-05-09T04:27:25.839Z,18.77
2023-05-09T04:28:25.942Z,18.80
2023-05-09T04:29:25.914Z,18.84
2023-05-09T04:30:25.978Z,18.86
2023-05-09T04:31:26.039Z,18.79
2023-05-09T04:32:26.006Z,18.77
2023-05-09T04:33:26.032Z,18.77
2023-05-09T04:34:25.992Z,18.79
2023-05-09T04:35:26.071Z,18.76
2023-05-09T04:36:26.104Z,18.66
2023-05-09T04:37:26.058Z,18.74
2023-05-09T04:38:26.217Z,18.76
2023-05-09T04:39:26.093Z,18.58
2023-05-09T04:40:27.042Z,18.56
2023-05-09T04:41:26.136Z,18.69
2023-05-09T04:42:26.150Z,18.55
2023-05-09T04:43:26.222Z,18.49
2023-05-09T04:44:26.237Z,18.62
2023-05-09T04:45:26.300Z,18.70
2023-05-09T04:46:26.348Z,18.77
2023-05-09T04:47:26.325Z,18.84
2023-05-09T04:48:26.321Z,18.86
2023-05-09T04:49:26.271Z,18.89
2023-05-09T04:50:26.306Z,18.97
2023-05-09T04:51:26.326Z,18.97
2023-05-09T04:52:26.415Z,19.01
2023-05-09T04:53:26.463Z,19.04
2023-05-09T04:54:26.422Z,19.07
2023-05-09T04:55:26.449Z,19.13
2023-05-09T04:56:26.415Z,19.07
2023-05-09T04:57:26.481Z,19.14
2023-05-09T04:58:26.538Z,19.14
2023-05-09T04:59:26.527Z,19.15
2023-05-09T05:00:26.540Z,19.21
2023-05-09T05:01:26.770Z,19.23
2023-05-09T05:02:26.699Z,19.25
2023-05-09T05:03:26.697Z,19.30
2023-05-09T05:04:26.752Z,19.34
2023-05-09T05:05:27.005Z,19.34
2023-05-09T05:06:26.800Z,19.34
2023-05-09T05:07:26.875Z,19.38
2023-05-09T05:08:26.967Z,19.41
2023-05-09T05:09:26.919Z,19.38
2023-05-09T05:10:26.981Z,19.45
2023-05-09T05:11:26.997Z,19.25
2023-05-09T05:12:27.096Z,19.42
2023-05-09T05:13:27.153Z,19.41
2023-05-09T05:14:27.163Z,19.51
2023-05-09T05:15:27.169Z,19.54
2023-05-09T05:16:27.246Z,19.58
2023-05-09T05:17:27.293Z,19.61
2023-05-09T05:18:27.278Z,19.62
2023-05-09T05:19:27.318Z,19.66
2023-05-09T05:20:27.366Z,19.72
2023-05-09T05:21:27.473Z,19.75
2023-05-09T05:22:27.523Z,19.73
2023-05-09T05:23:27.640Z,19.73
2023-05-09T05:24:27.700Z,19.83
2023-05-09T05:25:27.631Z,19.88
2023-05-09T05:26:28.254Z,19.88
2023-05-09T05:27:27.711Z,19.92
2023-05-09T05:28:27.727Z,19.99
2023-05-09T05:29:27.811Z,19.99
2023-05-09T05:30:27.912Z,20.05
2023-05-09T05:31:27.931Z,20.06
2023-05-09T05:32:28.016Z,20.08
2023-05-09T05:33:27.996Z,20.13
2023-05-09T05:34:28.074Z,20.13
2023-05-09T05:35:28.063Z,20.08
2023-05-09T05:36:28.081Z,20.11
2023-05-09T05:37:28.190Z,20.05
2023-05-09T05:38:28.171Z,20.03
2023-05-09T05:39:28.164Z,19.97
2023-05-09T05:40:29.310Z,20.02
2023-05-09T05:41:28.276Z,20.02
2023-05-09T05:42:28.337Z,20.11
2023-05-09T05:43:28.357Z,20.15
2023-05-09T05:44:28.411Z,20.17
2023-05-09T05:45:28.449Z,20.20
2023-05-09T05:46:28.516Z,20.23
2023-05-09T05:47:28.667Z,20.24
2023-05-09T05:48:28.617Z,20.27
2023-05-09T05:49:28.683Z,20.29
2023-05-09T05:50:28.720Z,20.29
2023-05-09T05:51:28.818Z,20.20
2023-05-09T05:52:28.784Z,20.29
2023-05-09T05:53:29.851Z,20.24
2023-05-09T05:54:28.881Z,20.27
2023-05-09T05:55:28.942Z,20.34
2023-05-09T05:56:29.025Z,20.32
2023-05-09T05:57:29.027Z,20.36
2023-05-09T05:58:29.098Z,20.40
2023-05-09T05:59:29.142Z,20.44
2023-05-09T06:00:29.291Z,20.44
2023-05-09T06:01:29.205Z,20.51
2023-05-09T06:02:29.308Z,20.56
2023-05-09T06:03:29.422Z,20.57
2023-05-09T06:04:29.261Z,20.57
2023-05-09T06:05:29.402Z,20.62
2023-05-09T06:06:29.476Z,20.68
2023-05-09T06:07:29.414Z,20.73
2023-05-09T06:08:29.812Z,20.73
2023-05-09T06:09:29.757Z,20.75
2023-05-09T06:10:29.657Z,20.73
2023-05-09T06:11:29.735Z,20.78
2023-05-09T06:12:29.741Z,20.80
2023-05-09T06:13:29.708Z,20.83
2023-05-09T06:14:29.692Z,20.83
2023-05-09T06:15:30.737Z,20.83
2023-05-09T06:16:29.780Z,20.78
2023-05-09T06:17:29.836Z,20.73
2023-05-09T06:18:29.831Z,20.81
2023-05-09T06:19:29.955Z,20.81
2023-05-09T06:20:29.996Z,20.83
2023-05-09T06:21:30.709Z,20.81
2023-05-09T06:22:31.748Z,20.81
2023-05-09T06:23:29.974Z,20.84
2023-05-09T06:24:35.722Z,20.80
2023-05-09T06:25:30.980Z,20.83
2023-05-09T06:26:29.998Z,20.85
2023-05-09T06:27:29.974Z,20.87
2023-05-09T06:28:30.088Z,20.85
2023-05-09T06:29:29.978Z,20.80
2023-05-09T06:30:30.263Z,20.83
2023-05-09T06:31:30.009Z,20.78
2023-05-09T06:32:30.006Z,20.71
2023-05-09T06:33:29.982Z,20.74
2023-05-09T06:34:29.973Z,20.73
2023-05-09T06:35:29.934Z,20.75
2023-05-09T06:36:29.984Z,20.80
2023-05-09T06:37:29.936Z,20.80
2023-05-09T06:38:30.277Z,20.75
2023-05-09T06:39:30.735Z,20.75
2023-05-09T06:40:30.751Z,20.56
2023-05-09T06:41:30.131Z,20.64
2023-05-09T06:42:30.139Z,20.58
2023-05-09T06:43:30.202Z,20.60
2023-05-09T06:44:30.526Z,20.68
2023-05-09T06:45:30.284Z,20.75
2023-05-09T06:46:30.289Z,20.78
2023-05-09T06:47:30.273Z,20.83
2023-05-09T06:48:30.335Z,20.88
2023-05-09T06:49:30.426Z,20.75
2023-05-09T06:50:32.832Z,20.66
2023-05-09T06:51:30.408Z,20.80
2023-05-09T06:52:30.327Z,20.77
2023-05-09T06:53:30.311Z,20.78
2023-05-09T06:54:30.357Z,20.74
2023-05-09T06:55:30.374Z,20.87
2023-05-09T06:56:30.286Z,21.01
2023-05-09T06:57:30.316Z,21.05
2023-05-09T06:58:30.278Z,21.11
2023-05-09T06:59:32.237Z,21.21
2023-05-09T07:00:30.344Z,21.29
2023-05-09T07:01:31.301Z,21.35
2023-05-09T07:02:30.353Z,21.35
2023-05-09T07:03:30.243Z,21.39
2023-05-09T07:04:30.251Z,21.45
2023-05-09T07:05:30.291Z,21.53
2023-05-09T07:06:30.313Z,21.42
2023-05-09T07:07:30.233Z,21.53
2023-05-09T07:08:30.205Z,21.57
2023-05-09T07:09:30.377Z,21.65
2023-05-09T07:10:30.456Z,21.72
2023-05-09T07:11:30.198Z,21.70
2023-05-09T07:12:30.172Z,21.67
2023-05-09T07:13:30.281Z,21.85
2023-05-09T07:14:30.273Z,21.89
2023-05-09T07:15:41.362Z,21.95
2023-05-09T07:16:31.411Z,22.00
2023-05-09T07:17:30.316Z,22.00
2023-05-09T07:18:30.801Z,22.06
2023-05-09T07:19:31.232Z,22.11
2023-05-09T07:20:30.305Z,22.17
2023-05-09T07:21:30.265Z,22.23
2023-05-09T07:22:32.121Z,22.31
2023-05-09T07:23:30.300Z,22.38
2023-05-09T07:24:30.779Z,22.38
2023-05-09T07:25:30.219Z,22.41
2023-05-09T07:26:30.291Z,22.44
2023-05-09T07:27:30.490Z,22.50
2023-05-09T07:28:30.370Z,22.57
2023-05-09T07:29:30.208Z,22.58
2023-05-09T07:30:30.199Z,22.57
2023-05-09T07:31:30.276Z,22.58
2023-05-09T07:32:30.351Z,22.64
2023-05-09T07:33:30.214Z,22.69
2023-05-09T07:34:30.899Z,22.79
2023-05-09T07:35:30.175Z,22.88
2023-05-09T07:36:30.768Z,22.87
2023-05-09T07:37:31.777Z,23.06
2023-05-09T07:38:30.290Z,23.13
2023-05-09T07:39:30.762Z,23.15
2023-05-09T07:40:30.157Z,23.15
2023-05-09T07:41:30.147Z,23.16
2023-05-09T07:42:30.249Z,23.19
2023-05-09T07:43:30.191Z,23.12
2023-05-09T07:44:30.140Z,23.05
2023-05-09T07:45:30.147Z,23.12
2023-05-09T07:46:30.371Z,23.06
2023-05-09T07:47:30.199Z,22.98
2023-05-09T07:48:30.227Z,23.05
2023-05-09T07:49:30.274Z,22.99
2023-05-09T07:50:30.115Z,22.99
2023-05-09T07:51:30.060Z,22.89
2023-05-09T07:52:30.105Z,23.03
2023-05-09T07:53:30.090Z,22.92
2023-05-09T07:54:30.112Z,22.85
2023-05-09T07:55:30.048Z,22.99
2023-05-09T07:56:30.135Z,23.08
2023-05-09T07:57:30.065Z,23.20
2023-05-09T07:58:30.078Z,23.23
2023-05-09T07:59:30.086Z,23.30
2023-05-09T08:00:30.061Z,23.48
2023-05-09T08:01:30.074Z,23.53
2023-05-09T08:02:30.155Z,23.49
2023-05-09T08:03:30.125Z,23.50
2023-05-09T08:04:30.280Z,23.49
2023-05-09T08:05:30.180Z,23.54
2023-05-09T08:06:30.228Z,23.50
2023-05-09T08:07:30.240Z,23.61
2023-05-09T08:08:30.297Z,23.60
2023-05-09T08:09:30.289Z,23.32
2023-05-09T08:10:30.368Z,23.52
2023-05-09T08:11:30.334Z,23.54
2023-05-09T08:12:30.408Z,23.54
2023-05-09T08:13:30.528Z,23.63
2023-05-09T08:14:30.489Z,23.73
2023-05-09T08:15:30.545Z,23.87
2023-05-09T08:16:30.732Z,23.94
2023-05-09T08:17:30.621Z,24.14
2023-05-09T08:18:30.753Z,24.24
2023-05-09T08:19:30.718Z,24.35
2023-05-09T08:20:30.826Z,24.41
2023-05-09T08:21:31.315Z,24.51
2023-05-09T08:22:30.995Z,24.42
2023-05-09T08:23:30.920Z,24.51
2023-05-09T08:24:30.898Z,24.34
2023-05-09T08:25:30.921Z,24.52
2023-05-09T08:26:31.017Z,24.56
2023-05-09T08:27:31.099Z,24.54
2023-05-09T08:28:31.032Z,24.42
2023-05-09T08:29:31.044Z,24.49
2023-05-09T08:30:31.107Z,24.56
2023-05-09T08:31:31.159Z,24.54
2023-05-09T08:32:31.211Z,24.48
2023-05-09T08:33:31.412Z,24.39
2023-05-09T08:34:31.197Z,24.42
2023-05-09T08:35:31.203Z,24.42
2023-05-09T08:36:31.334Z,24.30
2023-05-09T08:37:31.331Z,24.58
2023-05-09T08:38:31.809Z,24.28
2023-05-09T08:39:32.293Z,24.58
2023-05-09T08:40:31.391Z,24.65
2023-05-09T08:41:31.562Z,24.76
2023-05-09T08:42:31.430Z,24.86
2023-05-09T08:43:31.442Z,24.94
2023-05-09T08:44:31.571Z,24.92
2023-05-09T08:45:31.525Z,24.97
2023-05-09T08:46:31.600Z,25.09
2023-05-09T08:47:31.642Z,25.14
2023-05-09T08:48:32.048Z,25.20
2023-05-09T08:49:31.813Z,25.22
2023-05-09T08:50:31.774Z,25.30
2023-05-09T08:51:31.798Z,25.36
2023-05-09T08:52:31.914Z,25.37
2023-05-09T08:53:31.866Z,25.45
2023-05-09T08:54:32.297Z,25.45
2023-05-09T08:55:31.938Z,25.43
2023-05-09T08:56:31.976Z,25.41
2023-05-09T08:57:32.009Z,25.27
2023-05-09T08:58:32.130Z,25.41
2023-05-09T08:59:32.145Z,25.27
2023-05-09T09:00:32.233Z,25.34
2023-05-09T09:01:32.285Z,25.40
2023-05-09T09:02:32.558Z,25.36
2023-05-09T09:03:32.304Z,25.48
2023-05-09T09:04:32.350Z,25.54
2023-05-09T09:05:41.397Z,25.64
2023-05-09T09:06:33.354Z,25.71
2023-05-09T09:07:32.312Z,25.68
2023-05-09T09:08:33.363Z,25.84
2023-05-09T09:09:32.388Z,25.89
2023-05-09T09:10:32.346Z,25.71
2023-05-09T09:11:32.338Z,25.50
2023-05-09T09:12:32.294Z,25.43
2023-05-09T09:13:32.328Z,25.51
2023-05-09T09:14:32.307Z,25.64
2023-05-09T09:15:32.297Z,25.71
2023-05-09T09:16:32.386Z,25.77
2023-05-09T09:17:32.368Z,25.70
2023-05-09T09:18:32.306Z,25.89
2023-05-09T09:19:32.299Z,25.82
2023-05-09T09:20:32.250Z,25.80
2023-05-09T09:21:32.274Z,25.68
2023-05-09T09:22:32.247Z,25.55
2023-05-09T09:23:32.344Z,25.55
2023-05-09T09:24:32.362Z,25.60
2023-05-09T09:25:32.282Z,25.40
2023-05-09T09:26:32.340Z,25.54
2023-05-09T09:27:32.474Z,25.74
2023-05-09T09:28:32.378Z,25.87
2023-05-09T09:29:32.470Z,25.99
2023-05-09T09:30:32.419Z,26.11
2023-05-09T09:31:32.495Z,26.18
2023-05-09T09:32:32.563Z,26.28
2023-05-09T09:33:32.585Z,26.39
2023-05-09T09:34:34.349Z,26.43
2023-05-09T09:35:32.600Z,25.98
2023-05-09T09:36:32.764Z,26.04
2023-05-09T09:37:33.343Z,25.99
2023-05-09T09:38:32.664Z,26.04
2023-05-09T09:39:32.646Z,25.74
2023-05-09T09:40:32.799Z,25.47
2023-05-09T09:41:32.714Z,25.06
2023-05-09T09:42:32.702Z,25.17
2023-05-09T09:43:32.728Z,24.92
2023-05-09T09:44:32.814Z,24.56
2023-05-09T09:45:32.743Z,25.10
2023-05-09T09:46:32.767Z,25.00
2023-05-09T09:47:32.790Z,25.31
2023-05-09T09:48:32.771Z,25.50
2023-05-09T09:49:32.809Z,25.82
2023-05-09T09:50:32.933Z,26.02
2023-05-09T09:51:32.878Z,26.16
2023-05-09T09:52:32.955Z,26.21
2023-05-09T09:53:33.055Z,26.42
2023-05-09T09:54:33.299Z,26.29
2023-05-09T09:55:33.106Z,26.53
2023-05-09T09:56:33.156Z,26.67
2023-05-09T09:57:33.188Z,26.79
2023-05-09T09:58:33.181Z,26.89
2023-05-09T09:59:33.221Z,27.03
2023-05-09T10:00:33.262Z,26.89
2023-05-09T10:01:33.471Z,26.90
2023-05-09T10:02:33.372Z,27.04
2023-05-09T10:03:34.363Z,27.13
2023-05-09T10:04:33.434Z,27.05
2023-05-09T10:05:33.436Z,27.21
2023-05-09T10:06:33.460Z,27.23
2023-05-09T10:07:33.480Z,27.37
2023-05-09T10:08:33.545Z,27.38
2023-05-09T10:09:33.559Z,27.13
2023-05-09T10:10:33.593Z,27.17
2023-05-09T10:11:33.577Z,26.93
2023-05-09T10:12:33.714Z,27.11
2023-05-09T10:13:33.661Z,27.23
2023-05-09T10:14:35.351Z,27.03
2023-05-09T10:15:49.099Z,27.20
2023-05-09T10:16:43.747Z,27.33
2023-05-09T10:17:34.913Z,27.45
2023-05-09T10:18:33.998Z,27.59
2023-05-09T10:19:33.731Z,27.69
2023-05-09T10:20:33.721Z,27.58
2023-05-09T10:21:33.732Z,27.72
2023-05-09T10:22:33.710Z,27.82
2023-05-09T10:23:33.769Z,27.88
2023-05-09T10:24:33.697Z,27.95
2023-05-09T10:25:33.708Z,27.97
2023-05-09T10:26:34.298Z,28.07
2023-05-09T10:27:33.715Z,28.15
2023-05-09T10:28:33.725Z,28.17
2023-05-09T10:29:33.742Z,28.23
2023-05-09T10:30:34.193Z,28.19
2023-05-09T10:31:34.404Z,28.27
2023-05-09T10:32:33.641Z,28.36
2023-05-09T10:33:33.616Z,28.00
2023-05-09T10:34:33.612Z,28.24
2023-05-09T10:35:33.648Z,28.27
2023-05-09T10:36:33.613Z,28.17
2023-05-09T10:37:33.667Z,28.29
2023-05-09T10:38:33.585Z,28.23
2023-05-09T10:39:33.566Z,28.44
2023-05-09T10:40:33.587Z,28.20
2023-05-09T10:41:33.582Z,28.24
2023-05-09T10:42:33.566Z,27.75
2023-05-09T10:43:34.757Z,27.88
2023-05-09T10:44:33.735Z,27.81
2023-05-09T10:45:33.676Z,27.92
2023-05-09T10:46:33.736Z,28.05
2023-05-09T10:47:33.822Z,28.24
2023-05-09T10:48:33.740Z,28.33
2023-05-09T10:49:36.829Z,28.40
2023-05-09T10:50:33.780Z,28.50
2023-05-09T10:51:33.766Z,28.48
2023-05-09T10:52:35.347Z,28.60
2023-05-09T10:53:33.733Z,28.48
2023-05-09T10:54:33.805Z,28.74
2023-05-09T10:55:33.723Z,28.73
2023-05-09T10:56:33.735Z,28.90
2023-05-09T10:57:33.711Z,28.84
2023-05-09T10:58:33.799Z,29.01
2023-05-09T10:59:33.715Z,29.01
2023-05-09T11:00:33.732Z,29.12
2023-05-09T11:01:33.780Z,29.24
2023-05-09T11:02:34.313Z,29.24
2023-05-09T11:03:33.773Z,29.33
2023-05-09T11:04:34.344Z,29.40
2023-05-09T11:05:33.814Z,29.56
2023-05-09T11:06:33.827Z,29.52
2023-05-09T11:07:33.675Z,29.55
2023-05-09T11:08:34.318Z,29.62
2023-05-09T11:09:33.812Z,29.68
2023-05-09T11:10:33.646Z,29.68
2023-05-09T11:11:33.653Z,29.56
2023-05-09T11:12:33.627Z,29.77
2023-05-09T11:13:33.964Z,29.69
2023-05-09T11:14:33.848Z,29.69
2023-05-09T11:15:33.658Z,29.86
2023-05-09T11:16:33.699Z,30.04
2023-05-09T11:17:33.637Z,29.96
2023-05-09T11:18:33.601Z,30.10
2023-05-09T11:19:33.693Z,30.27
2023-05-09T11:20:33.674Z,30.07
2023-05-09T11:21:33.712Z,30.06
2023-05-09T11:22:33.764Z,29.52
2023-05-09T11:23:33.672Z,28.95
2023-05-09T11:24:34.468Z,28.91
2023-05-09T11:25:33.710Z,28.22
2023-05-09T11:26:33.790Z,28.33
2023-05-09T11:27:33.796Z,28.63
2023-05-09T11:28:33.837Z,28.87
2023-05-09T11:29:33.889Z,29.11
2023-05-09T11:30:33.864Z,29.42
2023-05-09T11:31:33.982Z,29.75
2023-05-09T11:32:34.946Z,30.03
2023-05-09T11:33:33.979Z,30.20
2023-05-09T11:34:33.987Z,30.47
2023-05-09T11:35:34.058Z,30.10
2023-05-09T11:36:34.120Z,30.42
2023-05-09T11:37:34.132Z,30.52
2023-05-09T11:38:34.160Z,30.75
2023-05-09T11:39:34.180Z,30.98
2023-05-09T11:40:34.220Z,31.09
2023-05-09T11:41:34.222Z,31.12
2023-05-09T11:42:34.250Z,31.12
2023-05-09T11:43:34.308Z,31.19
2023-05-09T11:44:34.376Z,31.40
2023-05-09T11:45:34.392Z,31.56
2023-05-09T11:46:34.384Z,31.63
2023-05-09T11:47:34.477Z,31.73
2023-05-09T11:48:34.517Z,31.85
2023-05-09T11:49:34.530Z,31.60
2023-05-09T11:50:34.494Z,31.80
2023-05-09T11:51:34.500Z,31.83
2023-05-09T11:52:34.531Z,31.81
2023-05-09T11:53:34.554Z,31.64
2023-05-09T11:54:34.619Z,31.84
2023-05-09T11:55:34.580Z,31.98
2023-05-09T11:56:34.598Z,31.87
2023-05-09T11:57:34.651Z,32.01
2023-05-09T11:58:34.745Z,32.07
2023-05-09T11:59:34.857Z,32.15
2023-05-09T12:00:34.790Z,32.06
2023-05-09T12:01:34.737Z,32.18
2023-05-09T12:02:34.883Z,32.03
2023-05-09T12:03:34.867Z,31.85
2023-05-09T12:04:35.039Z,31.63
2023-05-09T12:05:34.941Z,31.37
2023-05-09T12:06:34.893Z,31.60
2023-05-09T12:07:34.904Z,31.60
2023-05-09T12:08:34.923Z,31.87
2023-05-09T12:09:34.941Z,31.93
2023-05-09T12:10:34.960Z,32.07
2023-05-09T12:11:34.980Z,32.07
2023-05-09T12:12:34.996Z,31.76
2023-05-09T12:13:35.887Z,31.85
2023-05-09T12:14:35.388Z,31.95
2023-05-09T12:15:35.360Z,32.11
2023-05-09T12:16:35.239Z,31.85
2023-05-09T12:17:35.212Z,31.63
2023-05-09T12:18:35.212Z,31.28
2023-05-09T12:19:35.240Z,31.03
2023-05-09T12:20:35.354Z,31.23
2023-05-09T12:21:35.414Z,30.79
2023-05-09T12:22:35.338Z,30.24
2023-05-09T12:23:35.357Z,30.62
2023-05-09T12:24:35.376Z,30.89
2023-05-09T12:25:35.442Z,30.83
2023-05-09T12:26:35.459Z,30.82
2023-05-09T12:27:35.494Z,30.85
2023-05-09T12:28:35.500Z,30.50
2023-05-09T12:29:35.524Z,30.45
2023-05-09T12:30:35.585Z,29.89
2023-05-09T12:31:35.644Z,30.04
2023-05-09T12:32:35.698Z,30.04
2023-05-09T12:33:36.417Z,29.28
2023-05-09T12:34:35.714Z,30.01
2023-05-09T12:35:35.734Z,30.32
2023-05-09T12:36:35.885Z,30.50
2023-05-09T12:37:35.862Z,29.68
2023-05-09T12:38:35.838Z,29.80
2023-05-09T12:39:35.861Z,29.91
2023-05-09T12:40:43.967Z,29.70
2023-05-09T12:41:41.684Z,30.16
2023-05-09T12:42:36.919Z,30.26
2023-05-09T12:43:36.446Z,30.88
2023-05-09T12:44:35.851Z,31.11
2023-05-09T12:45:36.030Z,30.81
2023-05-09T12:46:37.537Z,30.71
2023-05-09T12:47:36.441Z,30.79
2023-05-09T12:48:35.867Z,31.08
2023-05-09T12:49:35.825Z,30.99
2023-05-09T12:50:35.896Z,30.75
2023-05-09T12:51:35.946Z,30.26
2023-05-09T12:52:39.748Z,30.32